createdAt,value
2018-03-28T00:02:15.787Z,10.80
2018-03-28T00:04:45.424Z,10.70
2018-03-28T00:07:14.278Z,13.17
2018-03-28T00:09:43.115Z,12.40
2018-03-28T00:12:12.368Z,12.50
2018-03-28T00:14:41.214Z,11.13
2018-03-28T00:17:10.038Z,11.27
2018-03-28T00:19:40.414Z,12.47
2018-03-28T00:22:09.287Z,13.00
2018-03-28T00:24:38.637Z,12.43
2018-03-28T00:27:07.454Z,13.70
2018-03-28T00:29:36.289Z,13.63
2018-03-28T00:32:05.137Z,13.53
2018-03-28T00:34:33.988Z,14.93
2018-03-28T00:37:02.833Z,15.00
2018-03-28T00:39:33.185Z,16.10
2018-03-28T00:42:02.030Z,14.70
2018-03-28T00:44:32.389Z,17.13
2018-03-28T00:47:02.116Z,16.03
2018-03-28T00:49:31.006Z,16.87
2018-03-28T00:51:59.867Z,15.93
2018-03-28T00:54:29.457Z,15.70
2018-03-28T00:56:59.079Z,17.53
2018-03-28T00:59:28.689Z,16.60
2018-03-28T01:01:58.330Z,18.77
2018-03-28T01:04:27.158Z,17.50
2018-03-28T01:06:55.998Z,18.70
2018-03-28T01:09:24.833Z,16.87
2018-03-28T01:11:53.685Z,14.50
2018-03-28T01:14:22.523Z,16.30
2018-03-28T01:16:51.370Z,17.07
2018-03-28T01:19:22.062Z,15.00
2018-03-28T01:21:51.678Z,15.50
2018-03-28T01:24:20.961Z,14.50
2018-03-28T01:26:49.803Z,17.60
2018-03-28T01:29:18.644Z,15.50
2018-03-28T01:31:47.484Z,16.40
2018-03-28T01:34:17.549Z,16.27
2018-03-28T01:36:46.391Z,16.70
2018-03-28T01:39:15.234Z,15.20
2018-03-28T01:41:44.126Z,15.20
2018-03-28T01:44:12.993Z,16.37
2018-03-28T01:46:41.898Z,14.70
2018-03-28T01:49:10.747Z,16.60
2018-03-28T01:51:39.574Z,14.37
2018-03-28T01:54:08.727Z,15.40
2018-03-28T01:56:37.611Z,14.50
2018-03-28T01:59:06.442Z,14.40
2018-03-28T02:01:36.034Z,14.67
2018-03-28T02:04:05.639Z,13.50
2018-03-28T02:06:35.245Z,14.67
2018-03-28T02:09:05.669Z,14.00
2018-03-28T02:11:35.269Z,13.97
2018-03-28T02:14:04.893Z,14.43
2018-03-28T02:16:34.498Z,13.77
2018-03-28T02:19:04.102Z,14.33
2018-03-28T02:21:34.110Z,14.50
2018-03-28T02:24:03.758Z,13.60
2018-03-28T02:26:32.644Z,15.57
2018-03-28T02:29:02.336Z,16.80
2018-03-28T02:31:31.154Z,15.10
2018-03-28T02:34:00.804Z,16.67
2018-03-28T02:36:29.646Z,15.40
2018-03-28T02:38:59.522Z,15.70
2018-03-28T02:41:28.330Z,17.47
2018-03-28T02:43:57.160Z,19.60
2018-03-28T02:46:25.999Z,18.23
2018-03-28T02:48:55.738Z,19.10
2018-03-28T02:51:26.496Z,21.60
2018-03-28T02:53:55.330Z,23.10
2018-03-28T02:56:24.180Z,23.30
2018-03-28T02:58:53.165Z,22.83
2018-03-28T03:01:22.073Z,22.27
2018-03-28T03:03:51.256Z,22.90
2018-03-28T03:06:20.102Z,26.23
2018-03-28T03:08:49.702Z,25.03
2018-03-28T03:11:18.552Z,26.80
2018-03-28T03:13:47.469Z,27.77
2018-03-28T03:16:17.037Z,28.83
2018-03-28T03:18:45.873Z,29.40
2018-03-28T03:21:14.720Z,32.70
2018-03-28T03:23:43.566Z,28.57
2018-03-28T03:26:12.646Z,31.17
2018-03-28T03:28:41.495Z,31.47
2018-03-28T03:31:10.801Z,33.60
2018-03-28T03:33:40.383Z,36.70
2018-03-28T03:36:09.976Z,34.40
2018-03-28T03:38:39.590Z,33.90
2018-03-28T03:41:09.225Z,37.30
2018-03-28T03:43:38.070Z,38.30
2018-03-28T03:46:08.413Z,39.17
2018-03-28T03:48:38.019Z,37.87
2018-03-28T03:51:07.630Z,47.80
2018-03-28T03:53:38.110Z,45.53
2018-03-28T03:56:06.958Z,41.53
2018-03-28T03:58:35.817Z,47.70
2018-03-28T04:01:04.655Z,47.80
2018-03-28T04:03:33.510Z,49.57
2018-03-28T04:06:03.147Z,46.17
2018-03-28T04:08:32.023Z,50.47
2018-03-28T04:11:01.622Z,48.70
2018-03-28T04:13:31.229Z,51.50
2018-03-28T04:16:00.070Z,50.70
2018-03-28T04:18:28.918Z,51.70
2018-03-28T04:20:58.081Z,53.97
2018-03-28T04:23:26.930Z,52.10
2018-03-28T04:25:56.599Z,54.40
2018-03-28T04:28:26.214Z,54.73
2018-03-28T04:30:55.062Z,51.70
2018-03-28T04:33:23.914Z,54.67
2018-03-28T04:35:54.053Z,55.43
2018-03-28T04:38:22.886Z,57.80
2018-03-28T04:40:51.758Z,59.10
2018-03-28T04:43:20.610Z,55.70
2018-03-28T04:45:50.250Z,56.07
2018-03-28T04:48:19.101Z,57.23
2018-03-28T04:50:48.714Z,57.10
2018-03-28T04:53:17.699Z,57.50
2018-03-28T04:55:47.370Z,58.27
2018-03-28T04:58:16.918Z,56.53
2018-03-28T05:00:46.550Z,57.33
2018-03-28T05:03:15.399Z,56.80
2018-03-28T05:05:44.246Z,55.33
2018-03-28T05:08:13.070Z,58.27
2018-03-28T05:10:41.956Z,58.23
2018-03-28T05:13:10.779Z,53.70
2018-03-28T05:15:40.433Z,54.33
2018-03-28T05:18:09.276Z,54.83
2018-03-28T05:20:38.102Z,54.50
2018-03-28T05:23:07.735Z,53.77
2018-03-28T05:25:36.582Z,49.60
2018-03-28T05:28:05.448Z,52.80
2018-03-28T05:30:35.224Z,52.47
2018-03-28T05:33:04.091Z,54.23
2018-03-28T05:35:32.951Z,51.03
2018-03-28T05:38:02.593Z,52.10
2018-03-28T05:40:31.654Z,52.20
2018-03-28T05:43:01.290Z,51.77
2018-03-28T05:45:30.125Z,50.80
2018-03-28T05:48:00.852Z,50.87
2018-03-28T05:50:29.787Z,51.53
2018-03-28T05:52:58.569Z,52.03
2018-03-28T05:55:28.221Z,53.97
2018-03-28T05:57:57.200Z,53.33
2018-03-28T06:00:26.054Z,55.53
2018-03-28T06:02:55.662Z,52.37
2018-03-28T06:05:25.290Z,51.90
2018-03-28T06:07:54.154Z,50.00
2018-03-28T06:10:23.773Z,50.97
2018-03-28T06:12:53.412Z,54.90
2018-03-28T06:15:22.274Z,51.90
2018-03-28T06:17:51.124Z,50.73
2018-03-28T06:20:19.970Z,52.83
2018-03-28T06:22:49.422Z,47.60
2018-03-28T06:25:18.270Z,52.00
2018-03-28T06:27:47.118Z,49.07
2018-03-28T06:30:16.730Z,48.30
2018-03-28T06:32:45.587Z,44.30
2018-03-28T06:35:14.440Z,45.83
2018-03-28T06:37:44.096Z,48.90
2018-03-28T06:40:12.943Z,44.77
2018-03-28T06:42:42.545Z,45.17
2018-03-28T06:45:12.180Z,47.90
2018-03-28T06:47:41.791Z,45.33
2018-03-28T06:50:10.647Z,46.80
2018-03-28T06:52:40.256Z,46.03
2018-03-28T06:55:09.913Z,44.63
2018-03-28T06:57:38.754Z,45.50
2018-03-28T07:00:08.379Z,47.53
2018-03-28T07:02:37.229Z,47.07
2018-03-28T07:05:06.128Z,50.97
2018-03-28T07:07:35.007Z,48.60
2018-03-28T07:10:03.821Z,49.93
2018-03-28T07:12:33.442Z,48.83
2018-03-28T07:15:02.314Z,51.63
2018-03-28T07:17:31.142Z,49.13
2018-03-28T07:20:00.001Z,50.77
2018-03-28T07:22:29.754Z,52.70
2018-03-28T07:24:58.594Z,47.07
2018-03-28T07:27:28.238Z,46.57
2018-03-28T07:29:57.196Z,49.20
2018-03-28T07:32:26.058Z,47.20
2018-03-28T07:34:54.918Z,50.07
2018-03-28T07:37:23.758Z,45.40
2018-03-28T07:39:52.599Z,50.53
2018-03-28T07:42:22.223Z,47.90
2018-03-28T07:44:52.241Z,48.80
2018-03-28T07:47:21.862Z,45.40
2018-03-28T07:49:50.719Z,40.77
2018-03-28T07:52:19.554Z,42.60
2018-03-28T07:54:49.442Z,41.40
2018-03-28T07:57:18.274Z,40.63
2018-03-28T07:59:47.093Z,42.57
2018-03-28T08:02:16.117Z,40.20
2018-03-28T08:04:45.755Z,38.00
2018-03-28T08:07:14.832Z,39.03
2018-03-28T08:09:43.682Z,44.03
2018-03-28T08:12:12.512Z,41.17
2018-03-28T08:14:41.369Z,42.13
2018-03-28T08:17:10.983Z,37.90
2018-03-28T08:19:39.802Z,39.57
2018-03-28T08:22:09.100Z,40.23
2018-03-28T08:24:38.141Z,36.13
2018-03-28T08:27:08.523Z,40.67
2018-03-28T08:29:37.379Z,39.47
2018-03-28T08:32:06.990Z,38.27
2018-03-28T08:34:36.059Z,41.70
2018-03-28T08:37:04.903Z,36.97
2018-03-28T08:39:33.785Z,39.93
2018-03-28T08:42:02.620Z,40.70
2018-03-28T08:44:31.504Z,38.27
2018-03-28T08:47:00.361Z,41.30
2018-03-28T08:49:29.224Z,40.47
2018-03-28T08:51:58.049Z,36.97
2018-03-28T08:54:26.874Z,40.20
2018-03-28T08:56:56.481Z,36.00
2018-03-28T08:59:25.341Z,40.33
2018-03-28T09:01:54.935Z,39.83
2018-03-28T09:04:23.805Z,40.90
2018-03-28T09:06:53.626Z,40.10
2018-03-28T09:09:22.484Z,40.87
2018-03-28T09:11:52.125Z,40.03
2018-03-28T09:14:21.059Z,41.47
2018-03-28T09:16:49.919Z,41.47
2018-03-28T09:19:18.771Z,42.33
2018-03-28T09:21:48.408Z,39.23
2018-03-28T09:24:17.260Z,36.87
2018-03-28T09:26:46.982Z,35.63
2018-03-28T09:29:16.576Z,35.10
2018-03-28T09:31:46.209Z,37.30
2018-03-28T09:34:15.098Z,36.90
2018-03-28T09:36:43.959Z,35.60
2018-03-28T09:39:12.789Z,38.13
2018-03-28T09:41:41.645Z,35.80
2018-03-28T09:44:10.513Z,36.10
2018-03-28T09:46:39.375Z,34.70
2018-03-28T09:49:08.229Z,36.70
2018-03-28T09:51:37.076Z,40.60
2018-03-28T09:54:06.693Z,40.93
2018-03-28T09:56:35.699Z,41.60
2018-03-28T09:59:04.538Z,44.07
2018-03-28T10:01:34.167Z,42.00
2018-03-28T10:04:09.790Z,39.20
2018-03-28T10:06:38.639Z,39.10
2018-03-28T10:09:07.511Z,41.33
2018-03-28T10:11:36.350Z,36.47
2018-03-28T10:14:05.221Z,39.17
2018-03-28T10:16:34.053Z,40.27
2018-03-28T10:19:03.701Z,36.70
2018-03-28T10:21:32.563Z,39.30
2018-03-28T10:24:01.426Z,36.23
2018-03-28T10:26:30.277Z,39.10
2018-03-28T10:28:59.142Z,36.07
2018-03-28T10:31:28.017Z,38.80
2018-03-28T10:33:56.877Z,36.57
2018-03-28T10:36:25.738Z,37.40
2018-03-28T10:38:55.346Z,38.47
2018-03-28T10:41:24.251Z,37.30
2018-03-28T10:43:53.217Z,36.33
2018-03-28T10:46:22.102Z,34.17
2018-03-28T10:48:50.929Z,36.67
2018-03-28T10:51:19.826Z,33.47
2018-03-28T10:53:49.015Z,33.60
2018-03-28T10:56:17.868Z,34.77
2018-03-28T10:58:46.706Z,33.27
2018-03-28T11:01:15.560Z,33.60
2018-03-28T11:03:45.784Z,33.00
2018-03-28T11:06:15.414Z,33.00
2018-03-28T11:08:44.266Z,35.90
2018-03-28T11:11:13.922Z,35.93
2018-03-28T11:13:42.775Z,36.40
2018-03-28T11:16:12.418Z,37.47
2018-03-28T11:18:42.075Z,35.37
2018-03-28T11:21:10.923Z,34.60
2018-03-28T11:23:39.772Z,32.17
2018-03-28T11:26:09.415Z,36.50
2018-03-28T11:28:38.244Z,38.07
2018-03-28T11:31:07.855Z,36.67
2018-03-28T11:33:36.696Z,36.10
2018-03-28T11:36:06.025Z,33.10
2018-03-28T11:38:34.883Z,32.37
2018-03-28T11:41:03.748Z,31.47
2018-03-28T11:43:33.380Z,33.57
2018-03-28T11:46:03.010Z,33.13
2018-03-28T11:48:32.207Z,38.67
2018-03-28T11:51:01.819Z,30.27
2018-03-28T11:53:30.683Z,32.77
2018-03-28T11:56:00.329Z,33.27
2018-03-28T11:58:29.201Z,32.43
2018-03-28T12:00:58.056Z,33.60
2018-03-28T12:03:26.892Z,35.90
2018-03-28T12:05:55.742Z,36.60
2018-03-28T12:08:25.394Z,34.37
2018-03-28T12:10:54.751Z,32.77
2018-03-28T12:13:24.406Z,35.00
2018-03-28T12:15:53.257Z,33.10
2018-03-28T12:18:22.882Z,35.67
2018-03-28T12:20:51.739Z,30.67
2018-03-28T12:23:26.580Z,33.40
2018-03-28T12:25:56.189Z,29.33
2018-03-28T12:28:28.057Z,33.70
2018-03-28T12:30:57.687Z,33.30
2018-03-28T12:33:26.531Z,30.70
2018-03-28T12:35:55.399Z,30.90
2018-03-28T12:38:24.997Z,31.10
2018-03-28T12:40:54.689Z,30.80
2018-03-28T12:43:23.533Z,32.30
2018-03-28T12:45:52.394Z,32.87
2018-03-28T12:48:22.006Z,31.03
2018-03-28T12:50:51.655Z,32.87
2018-03-28T12:53:20.503Z,31.30
2018-03-28T12:55:50.145Z,30.80
2018-03-28T12:58:19.770Z,31.93
2018-03-28T13:00:48.674Z,30.43
2018-03-28T13:03:17.551Z,34.93
2018-03-28T13:05:46.394Z,31.03
2018-03-28T13:08:15.286Z,34.20
2018-03-28T13:10:44.163Z,32.03
2018-03-28T13:13:13.775Z,31.83
2018-03-28T13:15:43.422Z,32.33
2018-03-28T13:18:12.279Z,33.47
2018-03-28T13:20:41.902Z,33.13
2018-03-28T13:23:10.752Z,33.00
2018-03-28T13:25:40.391Z,33.57
2018-03-28T13:28:09.244Z,33.73
2018-03-28T13:30:38.108Z,35.97
2018-03-28T13:33:06.968Z,34.60
2018-03-28T13:35:35.798Z,34.03
2018-03-28T13:38:05.423Z,35.03
2018-03-28T13:40:34.276Z,37.70
2018-03-28T13:43:04.637Z,37.60
2018-03-28T13:45:33.482Z,37.80
2018-03-28T13:48:02.686Z,37.87
2018-03-28T13:50:31.495Z,34.27
2018-03-28T13:53:00.458Z,37.10
2018-03-28T13:55:29.296Z,36.90
2018-03-28T13:57:58.153Z,39.73
2018-03-28T14:00:27.774Z,38.53
2018-03-28T14:02:56.862Z,38.60
2018-03-28T14:05:26.490Z,36.53
2018-03-28T14:07:55.797Z,40.30
2018-03-28T14:10:24.648Z,36.13
2018-03-28T14:12:53.540Z,37.00
2018-03-28T14:15:22.410Z,37.33
2018-03-28T14:17:51.270Z,35.60
2018-03-28T14:20:20.934Z,36.67
2018-03-28T14:22:50.566Z,34.63
2018-03-28T14:25:19.459Z,36.67
2018-03-28T14:27:49.068Z,34.57
2018-03-28T14:30:17.923Z,37.57
2018-03-28T14:32:47.547Z,39.70
2018-03-28T14:35:16.479Z,41.23
2018-03-28T14:37:46.092Z,36.10
2018-03-28T14:40:15.721Z,38.53
2018-03-28T14:42:54.588Z,34.23
2018-03-28T14:45:13.535Z,35.57
2018-03-28T14:47:42.355Z,32.70
2018-03-28T14:50:12.388Z,29.57
2018-03-28T14:52:41.588Z,25.07
2018-03-28T14:55:10.491Z,23.70
2018-03-28T14:57:39.558Z,22.33
2018-03-28T15:00:09.208Z,22.20
2018-03-28T15:02:38.223Z,22.53
2018-03-28T15:05:07.064Z,19.00
2018-03-28T15:07:35.979Z,13.33
2018-03-28T15:10:06.176Z,12.07
2018-03-28T15:12:35.792Z,10.93
2018-03-28T15:15:04.702Z,10.47
2018-03-28T15:17:33.578Z,9.53
2018-03-28T15:20:02.430Z,10.50
2018-03-28T15:22:31.949Z,7.63
2018-03-28T15:25:01.527Z,7.50
2018-03-28T15:27:30.361Z,7.57
2018-03-28T15:29:59.215Z,6.57
2018-03-28T15:32:28.863Z,5.00
2018-03-28T15:34:58.459Z,5.53
2018-03-28T15:37:27.857Z,4.53
2018-03-28T15:39:56.687Z,4.70
2018-03-28T15:42:25.504Z,4.50
2018-03-28T15:44:55.114Z,4.67
2018-03-28T15:47:24.698Z,5.47
2018-03-28T15:49:54.314Z,4.60
2018-03-28T15:52:23.911Z,5.50
2018-03-28T15:54:52.786Z,4.80
2018-03-28T15:57:21.621Z,4.43
2018-03-28T15:59:50.479Z,5.30
2018-03-28T16:02:19.743Z,5.07
2018-03-28T16:04:48.580Z,5.17
2018-03-28T16:07:18.181Z,6.60
2018-03-28T16:09:52.484Z,6.47
2018-03-28T16:12:26.951Z,4.87
2018-03-28T16:15:01.328Z,4.70
2018-03-28T16:17:36.654Z,6.17
2018-03-28T16:20:11.846Z,5.27
2018-03-28T16:22:46.236Z,4.83
2018-03-28T16:25:21.453Z,4.93
2018-03-28T16:27:50.270Z,4.97
2018-03-28T16:30:19.893Z,4.90
2018-03-28T16:32:48.703Z,5.40
2018-03-28T16:35:17.550Z,4.93
2018-03-28T16:37:46.388Z,5.57
2018-03-28T16:40:15.982Z,5.87
2018-03-28T16:42:44.817Z,5.93
2018-03-28T16:45:14.499Z,7.10
2018-03-28T16:47:44.137Z,6.40
2018-03-28T16:50:13.736Z,6.13
2018-03-28T16:52:42.631Z,6.53
2018-03-28T16:55:11.498Z,6.87
2018-03-28T16:57:40.325Z,6.50
2018-03-28T17:00:09.165Z,7.27
2018-03-28T17:02:38.002Z,7.37
2018-03-28T17:05:06.835Z,6.80
2018-03-28T17:07:36.513Z,5.90
2018-03-28T17:10:05.330Z,6.53
2018-03-28T17:12:35.190Z,6.30
2018-03-28T17:15:04.040Z,7.37
2018-03-28T17:17:32.920Z,6.70
2018-03-28T17:20:01.754Z,7.70
2018-03-28T17:22:30.599Z,9.60
2018-03-28T17:24:59.434Z,8.93
2018-03-28T17:27:28.325Z,9.30
2018-03-28T17:29:57.201Z,9.23
2018-03-28T17:32:26.826Z,11.37
2018-03-28T17:34:55.664Z,8.87
2018-03-28T17:37:24.513Z,9.67
2018-03-28T17:39:54.256Z,11.63
2018-03-28T17:42:23.062Z,11.40
2018-03-28T17:44:51.930Z,13.30
2018-03-28T17:47:20.788Z,17.50
2018-03-28T17:49:50.934Z,17.27
2018-03-28T17:52:20.539Z,9.97
2018-03-28T17:54:50.249Z,14.70
2018-03-28T17:57:19.850Z,19.03
2018-03-28T17:59:48.702Z,10.80
2018-03-28T18:02:17.558Z,10.53
2018-03-28T18:04:46.425Z,15.47
2018-03-28T18:07:15.275Z,11.90
2018-03-28T18:09:44.883Z,13.30
2018-03-28T18:12:14.550Z,13.93
2018-03-28T18:14:43.440Z,13.13
2018-03-28T18:17:12.293Z,11.77
2018-03-28T18:19:41.915Z,13.60
2018-03-28T18:22:10.811Z,16.13
2018-03-28T18:24:39.709Z,17.00
2018-03-28T18:27:08.917Z,14.83
2018-03-28T18:29:37.755Z,15.53
2018-03-28T18:32:07.417Z,13.00
2018-03-28T18:34:36.291Z,11.77
2018-03-28T18:37:05.251Z,11.73
2018-03-28T18:39:34.100Z,11.27
2018-03-28T18:42:02.955Z,10.40
2018-03-28T18:44:31.847Z,13.77
2018-03-28T18:47:00.736Z,13.37
2018-03-28T18:49:29.578Z,15.00
2018-03-28T18:51:59.220Z,12.13
2018-03-28T18:54:28.839Z,12.70
2018-03-28T18:56:57.855Z,11.13
2018-03-28T18:59:26.694Z,8.47
2018-03-28T19:01:55.557Z,5.67
2018-03-28T19:04:24.428Z,4.20
2018-03-28T19:06:53.266Z,2.80
2018-03-28T19:09:22.897Z,2.30
2018-03-28T19:11:51.844Z,3.27
2018-03-28T19:14:20.771Z,4.13
2018-03-28T19:16:49.607Z,6.07
2018-03-28T19:19:18.556Z,5.77
2018-03-28T19:21:47.427Z,6.77
2018-03-28T19:24:17.036Z,9.47
2018-03-28T19:26:45.880Z,6.63
2018-03-28T19:29:15.664Z,5.60
2018-03-28T19:31:44.499Z,4.83
2018-03-28T19:34:14.123Z,5.70
2018-03-28T19:36:43.802Z,6.63
2018-03-28T19:39:12.650Z,6.17
2018-03-28T19:41:41.552Z,8.23
2018-03-28T19:44:11.167Z,10.10
2018-03-28T19:46:40.796Z,13.10
2018-03-28T19:49:09.654Z,14.77
2018-03-28T19:51:39.286Z,16.80
2018-03-28T19:54:09.136Z,17.87
2018-03-28T19:56:38.784Z,19.57
2018-03-28T19:59:07.652Z,12.60
2018-03-28T20:01:36.486Z,9.27
2018-03-28T20:04:05.733Z,6.97
2018-03-28T20:06:34.657Z,8.63
2018-03-28T20:09:05.562Z,10.90
2018-03-28T20:11:34.416Z,8.83
2018-03-28T20:14:03.268Z,8.97
2018-03-28T20:16:32.898Z,8.13
2018-03-28T20:19:01.747Z,8.60
2018-03-28T20:21:30.600Z,8.50
2018-03-28T20:23:59.485Z,8.00
2018-03-28T20:26:28.357Z,6.93
2018-03-28T20:28:58.025Z,9.00
2018-03-28T20:31:26.869Z,8.67
2018-03-28T20:33:55.691Z,8.30
2018-03-28T20:36:26.064Z,9.00
2018-03-28T20:38:55.662Z,9.47
2018-03-28T20:41:24.519Z,9.50
2018-03-28T20:43:54.114Z,10.23
2018-03-28T20:46:23.733Z,10.20
2018-03-28T20:48:53.459Z,11.80
2018-03-28T20:51:23.086Z,11.03
2018-03-28T20:53:51.926Z,13.70
2018-03-28T20:56:20.784Z,14.60
2018-03-28T20:58:49.646Z,15.23
2018-03-28T21:01:18.502Z,15.90
2018-03-28T21:03:48.159Z,17.97
2018-03-28T21:06:16.999Z,19.77
2018-03-28T21:08:45.852Z,19.37
2018-03-28T21:11:14.730Z,18.77
2018-03-28T21:13:43.579Z,18.70
2018-03-28T21:16:13.187Z,17.90
2018-03-28T21:18:42.815Z,16.67
2018-03-28T21:21:11.657Z,16.50
2018-03-28T21:23:42.050Z,16.20
2018-03-28T21:26:10.881Z,16.50
2018-03-28T21:28:40.532Z,16.63
2018-03-28T21:31:09.478Z,16.50
2018-03-28T21:33:39.306Z,17.37
2018-03-28T21:36:08.177Z,20.10
2018-03-28T21:38:37.026Z,23.67
2018-03-28T21:41:05.966Z,20.60
2018-03-28T21:43:35.283Z,24.43
2018-03-28T21:46:04.919Z,26.07
2018-03-28T21:48:33.771Z,26.30
2018-03-28T21:51:03.422Z,28.00
2018-03-28T21:53:32.268Z,27.10
2018-03-28T21:56:01.882Z,25.97
2018-03-28T21:58:31.498Z,22.70
2018-03-28T22:01:01.099Z,18.93
2018-03-28T22:03:30.739Z,18.77
2018-03-28T22:05:59.591Z,18.33
2018-03-28T22:08:29.224Z,18.57
2018-03-28T22:10:58.086Z,18.37
2018-03-28T22:13:27.690Z,17.60
2018-03-28T22:15:56.534Z,16.33
2018-03-28T22:18:25.385Z,14.13
2018-03-28T22:20:54.998Z,15.13
2018-03-28T22:23:23.835Z,14.07
2018-03-28T22:25:52.688Z,13.77
2018-03-28T22:28:21.530Z,14.30
2018-03-28T22:30:50.370Z,13.77
2018-03-28T22:33:19.256Z,12.93
2018-03-28T22:35:48.855Z,12.53
2018-03-28T22:38:18.446Z,12.27
2018-03-28T22:40:48.102Z,13.63
2018-03-28T22:43:16.976Z,14.30
2018-03-28T22:45:45.822Z,16.67
2018-03-28T22:48:14.698Z,17.03
2018-03-28T22:50:43.606Z,16.83
2018-03-28T22:53:12.498Z,18.70
2018-03-28T22:55:41.338Z,14.97
2018-03-28T22:58:10.332Z,14.93
2018-03-28T23:00:39.966Z,15.60
2018-03-28T23:03:08.809Z,17.00
2018-03-28T23:05:37.665Z,15.93
2018-03-28T23:08:06.529Z,12.93
2018-03-28T23:10:35.609Z,13.53
2018-03-28T23:13:05.209Z,12.73
2018-03-28T23:15:34.842Z,12.90
2018-03-28T23:18:03.711Z,11.50
2018-03-28T23:20:33.319Z,10.23
2018-03-28T23:23:02.950Z,8.17
2018-03-28T23:25:31.805Z,7.30
2018-03-28T23:28:00.625Z,6.23
2018-03-28T23:30:29.471Z,5.10
2018-03-28T23:32:58.289Z,5.90
2018-03-28T23:35:27.902Z,6.00
2018-03-28T23:37:57.577Z,5.40
2018-03-28T23:40:26.449Z,5.87
2018-03-28T23:42:55.290Z,5.93
2018-03-28T23:45:24.105Z,6.20
2018-03-28T23:47:52.919Z,4.80
2018-03-28T23:50:21.759Z,5.80
2018-03-28T23:52:50.571Z,5.90
2018-03-28T23:55:19.451Z,5.70
2018-03-28T23:57:49.046Z,6.80
